HTWT2: E Fk Little Wichita Rv nr Henrietta, TX

Data processed at Sat Feb 24 2018 23:19


All information presented herein is the property of the government of the United States of America and may be revised or deleted at any time without prior notice.
Dissemination of this information without the expressed written consent of the Public Affairs Office, Tulsa District U.S. Army Corps of Engineers is strictly prohibited.
These data are gathered electronically and, as presented, have not undergone any form of quality control. These data are not guaranteed to be valid or correct.
Go to home page.
Go to station list.

Downstream station:


Previous Day
Next Day
Current Day
    
SHEF ID:       HTWT2     E Fk Little Wichita Rv nr Henrie
STATION TYPE:  

                STAGE  RIV-FLOW   VOLTAGE  BAT-LOAD
                   ft       cfs      volt      volt
              Ccp-Rev   Ccp-Rev   Ccp-Rev   Ccp-Rev
(US/Central)
02/24 00:00     10.43       174     12.73     11.25
02/24 01:00     10.59       185     12.75     11.25
02/24 02:00     10.77       197     12.74     11.25
02/24 03:00     10.88       204     12.76     11.25
02/24 04:00     10.95       209     12.76     11.25
02/24 05:00     11.08       218     12.73     11.25
02/24 06:00     11.21       227     12.74     11.25
02/24 07:00     11.39       240     12.75     11.25
02/24 08:00     11.58       255     12.75     11.25
02/24 09:00     11.76       269     12.78     11.25
02/24 10:00     11.92       282     12.82     11.25
02/24 11:00     12.00       288     13.08     11.31
02/24 12:00     12.09       296     13.37     11.60
02/24 13:00     12.17       302     13.40     11.83
02/24 14:00     12.26       310     13.45     11.95
02/24 15:00     12.34       317     13.57     11.95
02/24 16:00     12.43       324     13.54     12.07
02/24 17:00     12.53       333     13.47     12.01
02/24 18:00     12.68       347     13.21     11.95
02/24 19:00     12.85       362     13.15     11.72
02/24 20:00     12.98       374     13.09     11.66
02/24 21:00     13.16       391     13.07     11.60
02/24 22:00     13.33      ----     13.05     11.60
02/24 23:00      ----      ----      ----      ----